Time;durP1;ratioP1;P1;durP2;ratioP2;P2;SDS_P1;SDS_P2;PMS_P1;PMS_P2;Temp;Humidity;BMP_temperature;BMP_pressure;BME280_temperature;BME280_humidity;BME280_pressure;Samples;Min_cycle;Max_cycle;Signal;HPM_P1;HPM_P2
2024/02/25 00:01:43;;;;;;;;;;;;;;;;;;5051338;28;20019;-69
2024/02/25 00:04:08;;;;;;;;;;;;;;;;;;5064399;28;20434;-69
2024/02/25 00:06:34;;;;;;;;;;;;;;;;;;5062776;28;20019;-69
2024/02/25 00:09:04;;;;;;;;;;;;;;;;;;5072387;28;20505;-69
2024/02/25 00:11:30;;;;;;;;;;;;;;;;;;5075241;28;19927;-69
2024/02/25 00:13:56;;;;;;;;;;;;;;;;;;5071848;28;19936;-68
2024/02/25 00:16:22;;;;;;;;;;;;;;;;;;5075444;28;19974;-68
2024/02/25 00:18:48;;;;;;;;;;;;;;;;;;5074721;28;19928;-68
2024/02/25 00:21:14;;;;;;;;;;;;;;;;;;5074348;28;19927;-69
2024/02/25 00:23:40;;;;;;;;;;;;;;;;;;5073901;28;19924;-68
2024/02/25 00:26:06;;;;;;;;;;;;;;;;;;5074305;28;19961;-68
2024/02/25 00:28:32;;;;;;;;;;;;;;;;;;5072210;28;19928;-69
2024/02/25 00:30:58;;;;;;;;;;;;;;;;;;5072583;28;19926;-69
2024/02/25 00:33:23;;;;;;;;;;;;;;;;;;5074167;28;19924;-70
2024/02/25 00:35:49;;;;;;;;;;;;;;;;;;5073123;28;20277;-69
2024/02/25 00:38:16;;;;;;;;;;;;;;;;;;5072586;28;19920;-69
2024/02/25 00:40:42;;;;;;;;;;;;;;;;;;5072248;28;19928;-68
2024/02/25 00:43:08;;;;;;;;;;;;;;;;;;5074134;28;19928;-68
2024/02/25 00:45:33;;;;;;;;;;;;;;;;;;5070483;28;20388;-68
2024/02/25 00:47:59;;;;;;;;;;;;;;;;;;5072468;28;19927;-69
2024/02/25 00:50:26;;;;;;;;;;;;;;;;;;5074551;28;19928;-69
2024/02/25 00:52:52;;;;;;;;;;;;;;;;;;5074677;28;19928;-69
2024/02/25 00:55:18;;;;;;;;;;;;;;;;;;5072791;28;20271;-69
2024/02/25 00:57:44;;;;;;;;;;;;;;;;;;5071031;28;19931;-69
2024/02/25 01:00:10;;;;;;;;;;;;;;;;;;5069024;28;19930;-69
2024/02/25 01:02:36;;;;;;;;;;;;;;;;;;5071784;28;19943;-69
2024/02/25 01:05:02;;;;;;;;;;;;;;;;;;5071692;28;20398;-69
2024/02/25 01:07:27;;;;;;;;;;;;;;;;;;5073503;28;19999;-69
2024/02/25 01:09:53;;;;;;;;;;;;;;;;;;5073239;28;19924;-69
2024/02/25 01:12:19;;;;;;;;;;;;;;;;;;5073245;28;19943;-69
2024/02/25 01:14:45;;;;;;;;;;;;;;;;;;5071152;28;19974;-69
2024/02/25 01:17:11;;;;;;;;;;;;;;;;;;5073079;28;19925;-68
2024/02/25 01:19:37;;;;;;;;;;;;;;;;;;5070994;28;20396;-68
2024/02/25 01:22:03;;;;;;;;;;;;;;;;;;5071356;28;19928;-69
2024/02/25 01:24:29;;;;;;;;;;;;;;;;;;5072630;28;19920;-68
2024/02/25 01:26:55;;;;;;;;;;;;;;;;;;5073064;28;19924;-68
2024/02/25 01:29:21;;;;;;;;;;;;;;;;;;5073701;28;20036;-69
2024/02/25 01:31:50;;;;;;;;;;;;;;;;;;5073461;28;20372;-68
2024/02/25 01:34:16;;;;;;;;;;;;;;;;;;5071681;28;19924;-68
2024/02/25 01:36:42;;;;;;;;;;;;;;;;;;5072239;28;19931;-69
2024/02/25 01:39:08;;;;;;;;;;;;;;;;;;5073372;28;19920;-68
2024/02/25 01:41:34;;;;;;;;;;;;;;;;;;5063019;28;20374;-68
2024/02/25 01:44:00;;;;;;;;;;;;;;;;;;5053279;28;19990;-68
2024/02/25 01:46:26;;;;;;;;;;;;;;;;;;5053250;28;19974;-70
2024/02/25 01:48:53;;;;;;;;;;;;;;;;;;5064141;28;19932;-69
2024/02/25 01:51:19;;;;;;;;;;;;;;;;;;5073291;28;20306;-69
2024/02/25 01:53:45;;;;;;;;;;;;;;;;;;5073420;28;19924;-69
2024/02/25 01:56:11;;;;;;;;;;;;;;;;;;5071715;28;19921;-68
2024/02/25 01:58:37;;;;;;;;;;;;;;;;;;5073154;28;19930;-67
2024/02/25 02:01:03;;;;;;;;;;;;;;;;;;5044357;28;19924;-68
2024/02/25 02:03:29;;;;;;;;;;;;;;;;;;5073313;28;19927;-68
2024/02/25 02:05:55;;;;;;;;;;;;;;;;;;5071173;28;19927;-68
2024/02/25 02:08:21;;;;;;;;;;;;;;;;;;5071771;28;19924;-69
2024/02/25 02:10:47;;;;;;;;;;;;;;;;;;5072775;28;20358;-69
2024/02/25 02:13:13;;;;;;;;;;;;;;;;;;5072598;28;19929;-68
2024/02/25 02:15:39;;;;;;;;;;;;;;;;;;5072670;28;19929;-68
2024/02/25 02:18:06;;;;;;;;;;;;;;;;;;5072409;28;19948;-68
2024/02/25 02:20:32;;;;;;;;;;;;;;;;;;5069147;28;20013;-68
2024/02/25 02:22:58;;;;;;;;;;;;;;;;;;5071087;28;19925;-68
2024/02/25 02:25:24;;;;;;;;;;;;;;;;;;5072414;28;19921;-69
2024/02/25 02:27:50;;;;;;;;;;;;;;;;;;5072917;28;19976;-68
2024/02/25 02:30:16;;;;;;;;;;;;;;;;;;5072485;28;19925;-68
2024/02/25 02:32:42;;;;;;;;;;;;;;;;;;5071027;28;19935;-68
2024/02/25 02:35:08;;;;;;;;;;;;;;;;;;5071359;28;20007;-68
2024/02/25 02:37:34;;;;;;;;;;;;;;;;;;5071480;28;19921;-68
2024/02/25 02:40:00;;;;;;;;;;;;;;;;;;5072216;28;19928;-68
2024/02/25 02:42:25;;;;;;;;;;;;;;;;;;5053716;28;19928;-67
2024/02/25 02:44:51;;;;;;;;;;;;;;;;;;5072575;28;19920;-68
2024/02/25 02:47:22;;;;;;;;;;;;;;;;;;5072308;28;19920;-68
2024/02/25 02:49:48;;;;;;;;;;;;;;;;;;5072236;28;19924;-70
2024/02/25 02:52:14;;;;;;;;;;;;;;;;;;5070158;28;20357;-69
2024/02/25 02:54:40;;;;;;;;;;;;;;;;;;5072592;28;19973;-69
2024/02/25 02:57:06;;;;;;;;;;;;;;;;;;5071635;28;20433;-69
2024/02/25 02:59:33;;;;;;;;;;;;;;;;;;5071863;28;19931;-69
2024/02/25 03:01:59;;;;;;;;;;;;;;;;;;5069713;28;19975;-69
2024/02/25 03:04:24;;;;;;;;;;;;;;;;;;5072257;28;20548;-70
2024/02/25 03:06:50;;;;;;;;;;;;;;;;;;5068847;28;20432;-69
2024/02/25 03:09:16;;;;;;;;;;;;;;;;;;5072103;28;19921;-69
2024/02/25 03:11:42;;;;;;;;;;;;;;;;;;5068083;28;19928;-70
2024/02/25 03:14:08;;;;;;;;;;;;;;;;;;5070400;28;19924;-69
2024/02/25 03:16:34;;;;;;;;;;;;;;;;;;5071765;28;19952;-69
2024/02/25 03:19:00;;;;;;;;;;;;;;;;;;5071959;28;20595;-69
2024/02/25 03:21:26;;;;;;;;;;;;;;;;;;5070376;28;20398;-69
2024/02/25 03:23:52;;;;;;;;;;;;;;;;;;5069741;28;19931;-69
2024/02/25 03:26:18;;;;;;;;;;;;;;;;;;5070266;28;19920;-67
2024/02/25 03:28:44;;;;;;;;;;;;;;;;;;5071938;28;19932;-68
2024/02/25 03:31:10;;;;;;;;;;;;;;;;;;5071758;28;20378;-68
2024/02/25 03:33:36;;;;;;;;;;;;;;;;;;5071689;28;20336;-69
2024/02/25 03:36:01;;;;;;;;;;;;;;;;;;5071832;28;19978;-68
2024/02/25 03:38:27;;;;;;;;;;;;;;;;;;5069736;28;19935;-69
2024/02/25 03:40:53;;;;;;;;;;;;;;;;;;5065663;28;19930;-68
2024/02/25 03:43:19;;;;;;;;;;;;;;;;;;5072070;28;20282;-68
2024/02/25 03:45:45;;;;;;;;;;;;;;;;;;5076072;28;19927;-68
2024/02/25 03:48:11;;;;;;;;;;;;;;;;;;5057033;28;19927;-68
2024/02/25 03:50:37;;;;;;;;;;;;;;;;;;5075733;28;19925;-68
2024/02/25 03:53:03;;;;;;;;;;;;;;;;;;5075448;28;19973;-68
2024/02/25 03:55:29;;;;;;;;;;;;;;;;;;5073883;28;19928;-69
2024/02/25 03:57:55;;;;;;;;;;;;;;;;;;5075576;28;20757;-69
2024/02/25 04:00:21;;;;;;;;;;;;;;;;;;5075498;28;20384;-69
2024/02/25 04:02:47;;;;;;;;;;;;;;;;;;5073128;28;19921;-69
2024/02/25 04:05:13;;;;;;;;;;;;;;;;;;5075543;28;19931;-69
2024/02/25 04:07:39;;;;;;;;;;;;;;;;;;5075177;28;19932;-68
2024/02/25 04:10:04;;;;;;;;;;;;;;;;;;5075335;28;20413;-70
2024/02/25 04:12:30;;;;;;;;;;;;;;;;;;5073512;28;19920;-70
2024/02/25 04:14:56;;;;;;;;;;;;;;;;;;5075431;28;19924;-69
2024/02/25 04:17:23;;;;;;;;;;;;;;;;;;5075299;28;19935;-69
2024/02/25 04:19:49;;;;;;;;;;;;;;;;;;5075386;28;19921;-69
2024/02/25 04:22:15;;;;;;;;;;;;;;;;;;5075034;28;19921;-69
2024/02/25 04:24:41;;;;;;;;;;;;;;;;;;5075139;28;19925;-69
2024/02/25 04:27:07;;;;;;;;;;;;;;;;;;5052046;28;19920;-69
2024/02/25 04:29:33;;;;;;;;;;;;;;;;;;5053760;28;19921;-69
2024/02/25 04:31:59;;;;;;;;;;;;;;;;;;5054755;28;20473;-69
2024/02/25 04:34:25;;;;;;;;;;;;;;;;;;5055110;28;20015;-69
2024/02/25 04:36:51;;;;;;;;;;;;;;;;;;5054730;28;19972;-69
2024/02/25 04:39:17;;;;;;;;;;;;;;;;;;5070620;28;19921;-69
2024/02/25 04:41:43;;;;;;;;;;;;;;;;;;5072431;28;19928;-69
2024/02/25 04:44:10;;;;;;;;;;;;;;;;;;5073248;28;19955;-69
2024/02/25 04:46:38;;;;;;;;;;;;;;;;;;5069232;28;19956;-69
2024/02/25 04:49:04;;;;;;;;;;;;;;;;;;5074494;28;19928;-69
2024/02/25 04:51:30;;;;;;;;;;;;;;;;;;5074494;28;19931;-69
2024/02/25 04:53:57;;;;;;;;;;;;;;;;;;5074257;28;19925;-69
2024/02/25 04:56:27;;;;;;;;;;;;;;;;;;5074273;28;20467;-70
2024/02/25 04:58:53;;;;;;;;;;;;;;;;;;5072432;28;19928;-69
2024/02/25 05:01:19;;;;;;;;;;;;;;;;;;5074485;28;19920;-69
2024/02/25 05:03:45;;;;;;;;;;;;;;;;;;5073685;28;19924;-69
2024/02/25 05:06:11;;;;;;;;;;;;;;;;;;5074461;28;19974;-68
2024/02/25 05:08:37;;;;;;;;;;;;;;;;;;5074074;28;20376;-68
2024/02/25 05:11:02;;;;;;;;;;;;;;;;;;5074175;28;19931;-68
2024/02/25 05:13:28;;;;;;;;;;;;;;;;;;5071965;28;19924;-68
2024/02/25 05:15:55;;;;;;;;;;;;;;;;;;5074196;28;19924;-68
2024/02/25 05:18:21;;;;;;;;;;;;;;;;;;5074234;28;19921;-68
2024/02/25 05:20:47;;;;;;;;;;;;;;;;;;5074286;28;19931;-69
2024/02/25 05:23:13;;;;;;;;;;;;;;;;;;5074104;28;20007;-70
2024/02/25 05:25:38;;;;;;;;;;;;;;;;;;5072967;28;19921;-69
2024/02/25 05:28:06;;;;;;;;;;;;;;;;;;5070760;28;20020;-69
2024/02/25 05:30:32;;;;;;;;;;;;;;;;;;5072530;28;19932;-69
2024/02/25 05:32:58;;;;;;;;;;;;;;;;;;5070437;28;19921;-69
2024/02/25 05:35:24;;;;;;;;;;;;;;;;;;5053627;28;20374;-69
2024/02/25 05:37:50;;;;;;;;;;;;;;;;;;5053722;28;19929;-69
2024/02/25 05:40:16;;;;;;;;;;;;;;;;;;5052948;28;19928;-70
2024/02/25 05:42:42;;;;;;;;;;;;;;;;;;5053997;28;19979;-69
2024/02/25 05:45:08;;;;;;;;;;;;;;;;;;5069661;28;19924;-69
2024/02/25 05:47:34;;;;;;;;;;;;;;;;;;5072615;28;19927;-70
2024/02/25 05:50:00;;;;;;;;;;;;;;;;;;5071262;28;20286;-69
2024/02/25 05:52:26;;;;;;;;;;;;;;;;;;5068315;28;19925;-69
2024/02/25 05:54:52;;;;;;;;;;;;;;;;;;5066883;28;20487;-68
2024/02/25 05:57:18;;;;;;;;;;;;;;;;;;5052615;28;20354;-69
2024/02/25 05:59:46;;;;;;;;;;;;;;;;;;5054125;28;20011;-69
2024/02/25 06:02:12;;;;;;;;;;;;;;;;;;5051629;28;19920;-69
2024/02/25 06:04:38;;;;;;;;;;;;;;;;;;5068207;28;19931;-70
2024/02/25 06:07:04;;;;;;;;;;;;;;;;;;5065353;28;19927;-69
2024/02/25 06:09:30;;;;;;;;;;;;;;;;;;5067888;28;19943;-70
2024/02/25 06:11:55;;;;;;;;;;;;;;;;;;5063456;28;19925;-69
2024/02/25 06:14:21;;;;;;;;;;;;;;;;;;5052513;28;20019;-69
2024/02/25 06:16:47;;;;;;;;;;;;;;;;;;5054253;28;20259;-70
2024/02/25 06:19:13;;;;;;;;;;;;;;;;;;5059145;28;19935;-69
2024/02/25 06:21:39;;;;;;;;;;;;;;;;;;5071188;28;19966;-69
2024/02/25 06:24:05;;;;;;;;;;;;;;;;;;5063400;28;19925;-69
2024/02/25 06:26:31;;;;;;;;;;;;;;;;;;5068336;28;19943;-69
2024/02/25 06:28:58;;;;;;;;;;;;;;;;;;5058079;28;19966;-70
2024/02/25 06:31:24;;;;;;;;;;;;;;;;;;5052200;28;20019;-69
2024/02/25 06:33:50;;;;;;;;;;;;;;;;;;5067513;28;19925;-68
2024/02/25 06:36:16;;;;;;;;;;;;;;;;;;5051595;28;20356;-68
2024/02/25 06:38:42;;;;;;;;;;;;;;;;;;5071269;28;20317;-68
2024/02/25 06:41:08;;;;;;;;;;;;;;;;;;5067834;28;19921;-69
2024/02/25 06:43:34;;;;;;;;;;;;;;;;;;5066988;28;19932;-68
2024/02/25 06:46:00;;;;;;;;;;;;;;;;;;5050956;28;20254;-68
2024/02/25 06:48:26;;;;;;;;;;;;;;;;;;5052278;28;19925;-69
2024/02/25 06:50:51;;;;;;;;;;;;;;;;;;5059378;28;20020;-68
2024/02/25 06:53:18;;;;;;;;;;;;;;;;;;5061319;28;19952;-68
2024/02/25 06:55:45;;;;;;;;;;;;;;;;;;5074737;22;20156;-64
2024/02/25 06:58:11;;;;;;;;;;;;;;;;;;5048221;28;20577;-64
2024/02/25 07:00:38;;;;;;;;;;;;;;;;;;5048803;28;19925;-64
2024/02/25 07:03:04;;;;;;;;;;;;;;;;;;5050968;28;19920;-64
2024/02/25 07:05:29;;;;;;;;;;;;;;;;;;5047994;28;20359;-65
2024/02/25 07:07:56;;;;;;;;;;;;;;;;;;5050156;28;19972;-65
2024/02/25 07:10:22;;;;;;;;;;;;;;;;;;5048065;28;19967;-65
2024/02/25 07:12:48;;;;;;;;;;;;;;;;;;5049699;28;19964;-65
2024/02/25 07:15:14;;;;;;;;;;;;;;;;;;5050761;28;19925;-65
2024/02/25 07:17:41;;;;;;;;;;;;;;;;;;5050929;28;20366;-65
2024/02/25 07:20:07;;;;;;;;;;;;;;;;;;5050594;28;19921;-65
2024/02/25 07:22:33;;;;;;;;;;;;;;;;;;5051198;28;19925;-65
2024/02/25 07:24:59;;;;;;;;;;;;;;;;;;5047836;28;19955;-65
2024/02/25 07:27:25;;;;;;;;;;;;;;;;;;5051275;28;19943;-65
2024/02/25 07:29:50;;;;;;;;;;;;;;;;;;5042941;28;19925;-65
2024/02/25 07:32:16;;;;;;;;;;;;;;;;;;5051178;28;19924;-65
2024/02/25 07:34:42;;;;;;;;;;;;;;;;;;5051514;28;19999;-64
2024/02/25 07:37:08;;;;;;;;;;;;;;;;;;5067223;28;19921;-64
2024/02/25 07:39:34;;;;;;;;;;;;;;;;;;5050281;28;20011;-64
2024/02/25 07:42:00;;;;;;;;;;;;;;;;;;5051523;28;20015;-64
2024/02/25 07:44:26;;;;;;;;;;;;;;;;;;5046157;28;20025;-65
2024/02/25 07:46:53;;;;;;;;;;;;;;;;;;5043512;28;19966;-65
2024/02/25 07:49:19;;;;;;;;;;;;;;;;;;5037813;28;20262;-65
2024/02/25 07:51:45;;;;;;;;;;;;;;;;;;5045514;28;19921;-65
2024/02/25 07:54:10;;;;;;;;;;;;;;;;;;5049769;28;19929;-66
2024/02/25 07:56:36;;;;;;;;;;;;;;;;;;5050749;28;19925;-65
2024/02/25 07:59:02;;;;;;;;;;;;;;;;;;5051574;28;20056;-65
2024/02/25 08:01:28;;;;;;;;;;;;;;;;;;5044444;28;19921;-65
2024/02/25 08:03:54;;;;;;;;;;;;;;;;;;5051150;28;19969;-65
2024/02/25 08:06:20;;;;;;;;;;;;;;;;;;5048092;28;19921;-65
2024/02/25 08:08:46;;;;;;;;;;;;;;;;;;5050385;28;19925;-64
2024/02/25 08:11:12;;;;;;;;;;;;;;;;;;5049293;28;20409;-65
2024/02/25 08:13:38;;;;;;;;;;;;;;;;;;5049323;28;19928;-65
2024/02/25 08:16:04;;;;;;;;;;;;;;;;;;5047208;28;19929;-64
2024/02/25 08:18:30;;;;;;;;;;;;;;;;;;5032406;28;20321;-65
2024/02/25 08:20:56;;;;;;;;;;;;;;;;;;5033357;28;20366;-65
2024/02/25 08:23:22;;;;;;;;;;;;;;;;;;5049354;28;20289;-65
2024/02/25 08:25:48;;;;;;;;;;;;;;;;;;5051122;28;19958;-65
2024/02/25 08:28:14;;;;;;;;;;;;;;;;;;5050759;28;19921;-65
2024/02/25 08:30:39;;;;;;;;;;;;;;;;;;5042218;28;19957;-65
2024/02/25 08:33:06;;;;;;;;;;;;;;;;;;5034476;28;19960;-65
2024/02/25 08:35:31;;;;;;;;;;;;;;;;;;5036103;28;19929;-65
2024/02/25 08:37:58;;;;;;;;;;;;;;;;;;5053370;28;19927;-65
2024/02/25 08:40:25;;;;;;;;;;;;;;;;;;5054458;28;19928;-65
2024/02/25 08:42:52;;;;;;;;;;;;;;;;;;5053933;28;19975;-65
2024/02/25 08:45:18;;;;;;;;;;;;;;;;;;5064406;28;19925;-66
2024/02/25 08:47:44;;;;;;;;;;;;;;;;;;5051221;28;19927;-65
2024/02/25 08:50:12;;;;;;;;;;;;;;;;;;5053097;28;20290;-65
2024/02/25 08:52:38;;;;;;;;;;;;;;;;;;5053817;28;20050;-63
2024/02/25 08:55:04;;;;;;;;;;;;;;;;;;5054158;28;20012;-65
2024/02/25 08:57:32;;;;;;;;;;;;;;;;;;5053765;28;19924;-65
2024/02/25 08:59:58;;;;;;;;;;;;;;;;;;5051641;28;19963;-65
2024/02/25 09:02:24;;;;;;;;;;;;;;;;;;5036684;28;19963;-65
2024/02/25 09:04:51;;;;;;;;;;;;;;;;;;5053091;28;19964;-64
2024/02/25 09:07:17;;;;;;;;;;;;;;;;;;5052450;28;19925;-64
2024/02/25 09:09:43;;;;;;;;;;;;;;;;;;5051795;28;19938;-64
2024/02/25 09:12:13;;;;;;;;;;;;;;;;;;5053863;28;19940;-64
2024/02/25 09:14:39;;;;;;;;;;;;;;;;;;5054049;28;19921;-64
2024/02/25 09:17:05;;;;;;;;;;;;;;;;;;5037784;28;19974;-64
2024/02/25 09:19:31;;;;;;;;;;;;;;;;;;5034339;28;20023;-64
2024/02/25 09:21:57;;;;;;;;;;;;;;;;;;5032757;28;20007;-64
2024/02/25 09:24:23;;;;;;;;;;;;;;;;;;5035727;28;20492;-64
2024/02/25 09:26:49;;;;;;;;;;;;;;;;;;5039096;28;20012;-65
2024/02/25 09:29:15;;;;;;;;;;;;;;;;;;5048884;28;20072;-64
2024/02/25 09:31:41;;;;;;;;;;;;;;;;;;5045720;28;20053;-64
2024/02/25 09:34:08;;;;;;;;;;;;;;;;;;5053170;28;20013;-65
2024/02/25 09:36:34;;;;;;;;;;;;;;;;;;5052253;28;19931;-65
2024/02/25 09:39:03;;;;;;;;;;;;;;;;;;5052880;28;20481;-65
2024/02/25 09:41:29;;;;;;;;;;;;;;;;;;5050760;28;19921;-65
2024/02/25 09:43:54;;;;;;;;;;;;;;;;;;5051172;28;19994;-65
2024/02/25 09:46:20;;;;;;;;;;;;;;;;;;5052194;28;19929;-65
2024/02/25 09:48:46;;;;;;;;;;;;;;;;;;5044681;28;20058;-63
2024/02/25 09:51:12;;;;;;;;;;;;;;;;;;5041387;28;19921;-64
2024/02/25 09:53:38;;;;;;;;;;;;;;;;;;5052640;28;19951;-64
2024/02/25 09:56:04;;;;;;;;;;;;;;;;;;5052091;28;20366;-64
2024/02/25 09:58:30;;;;;;;;;;;;;;;;;;5053244;28;19921;-65
2024/02/25 10:00:56;;;;;;;;;;;;;;;;;;5052951;28;19921;-65
2024/02/25 10:03:22;;;;;;;;;;;;;;;;;;5037932;28;20762;-65
2024/02/25 10:05:48;;;;;;;;;;;;;;;;;;5037127;28;19936;-65
2024/02/25 10:08:14;;;;;;;;;;;;;;;;;;5044900;28;19932;-65
2024/02/25 10:10:41;;;;;;;;;;;;;;;;;;5051899;28;19939;-66
2024/02/25 10:13:07;;;;;;;;;;;;;;;;;;5052640;28;20011;-65
2024/02/25 10:15:33;;;;;;;;;;;;;;;;;;5052871;28;20012;-65
2024/02/25 10:17:59;;;;;;;;;;;;;;;;;;5051238;28;20454;-66
2024/02/25 10:20:25;;;;;;;;;;;;;;;;;;5050399;28;19925;-65
2024/02/25 10:22:51;;;;;;;;;;;;;;;;;;5045560;28;19931;-63
2024/02/25 10:25:17;;;;;;;;;;;;;;;;;;5046644;28;19928;-64
2024/02/25 10:27:44;;;;;;;;;;;;;;;;;;5049439;28;20401;-65
2024/02/25 10:30:11;;;;;;;;;;;;;;;;;;5052457;28;20370;-65
2024/02/25 10:32:38;;;;;;;;;;;;;;;;;;5034240;28;19929;-65
2024/02/25 10:35:04;;;;;;;;;;;;;;;;;;5052392;28;19943;-66
2024/02/25 10:37:30;;;;;;;;;;;;;;;;;;5043107;28;20363;-65
2024/02/25 10:39:56;;;;;;;;;;;;;;;;;;5036538;28;21697;-65
2024/02/25 10:42:23;;;;;;;;;;;;;;;;;;5042997;28;20269;-66
2024/02/25 10:44:49;;;;;;;;;;;;;;;;;;5052415;28;19928;-66
2024/02/25 10:47:16;;;;;;;;;;;;;;;;;;5050430;28;19921;-64
2024/02/25 10:49:42;;;;;;;;;;;;;;;;;;5052109;28;20377;-64
2024/02/25 10:52:08;;;;;;;;;;;;;;;;;;5050040;28;20282;-64
2024/02/25 10:54:34;;;;;;;;;;;;;;;;;;5051941;28;19921;-64
2024/02/25 10:57:00;;;;;;;;;;;;;;;;;;5040718;28;20015;-64
2024/02/25 10:59:26;;;;;;;;;;;;;;;;;;5047579;28;19921;-65
2024/02/25 11:01:52;;;;;;;;;;;;;;;;;;5033691;28;19921;-64
2024/02/25 11:04:18;;;;;;;;;;;;;;;;;;5049931;28;19995;-65
2024/02/25 11:06:45;;;;;;;;;;;;;;;;;;5050918;28;19979;-64
2024/02/25 11:09:12;;;;;;;;;;;;;;;;;;5049899;28;19921;-65
2024/02/25 11:11:38;;;;;;;;;;;;;;;;;;5051179;28;19921;-65
2024/02/25 11:14:04;;;;;;;;;;;;;;;;;;5051547;28;19962;-65
2024/02/25 11:16:30;;;;;;;;;;;;;;;;;;5051816;28;20468;-65
2024/02/25 11:18:56;;;;;;;;;;;;;;;;;;5040800;28;20437;-65
2024/02/25 11:21:22;;;;;;;;;;;;;;;;;;5048502;28;19920;-65
2024/02/25 11:23:49;;;;;;;;;;;;;;;;;;5051693;28;19925;-65
2024/02/25 11:26:15;;;;;;;;;;;;;;;;;;5051065;28;19921;-65
2024/02/25 11:28:41;;;;;;;;;;;;;;;;;;5049661;28;19925;-65
2024/02/25 11:31:07;;;;;;;;;;;;;;;;;;5051167;28;19921;-65
2024/02/25 11:33:39;;;;;;;;;;;;;;;;;;5048162;28;20386;-65
2024/02/25 11:36:05;;;;;;;;;;;;;;;;;;5046156;28;20008;-65
2024/02/25 11:38:31;;;;;;;;;;;;;;;;;;5051037;28;20015;-65
2024/02/25 11:40:57;;;;;;;;;;;;;;;;;;5049226;28;19932;-65
2024/02/25 11:43:22;;;;;;;;;;;;;;;;;;5049606;28;19925;-65
2024/02/25 11:45:48;;;;;;;;;;;;;;;;;;5050906;28;19921;-65
2024/02/25 11:48:14;;;;;;;;;;;;;;;;;;5047323;28;20390;-65
2024/02/25 11:50:40;;;;;;;;;;;;;;;;;;5033366;28;20438;-65
2024/02/25 11:53:06;;;;;;;;;;;;;;;;;;5046092;28;19929;-65
2024/02/25 11:55:32;;;;;;;;;;;;;;;;;;5050665;28;20042;-65
2024/02/25 11:57:58;;;;;;;;;;;;;;;;;;5047993;28;20005;-65
2024/02/25 12:00:24;;;;;;;;;;;;;;;;;;5050033;28;19935;-65
2024/02/25 12:02:50;;;;;;;;;;;;;;;;;;5051043;28;19921;-65
2024/02/25 12:05:16;;;;;;;;;;;;;;;;;;5053734;28;19925;-65
2024/02/25 12:07:42;;;;;;;;;;;;;;;;;;5053742;28;19927;-66
2024/02/25 12:10:08;;;;;;;;;;;;;;;;;;5053122;28;19970;-65
2024/02/25 12:12:34;;;;;;;;;;;;;;;;;;5054245;28;19928;-65
2024/02/25 12:15:00;;;;;;;;;;;;;;;;;;5055316;28;19943;-65
2024/02/25 12:17:26;;;;;;;;;;;;;;;;;;5055098;28;20390;-65
2024/02/25 12:19:53;;;;;;;;;;;;;;;;;;5055203;28;19920;-65
2024/02/25 12:22:19;;;;;;;;;;;;;;;;;;5053354;28;20011;-65
2024/02/25 12:24:45;;;;;;;;;;;;;;;;;;5045989;28;20380;-65
2024/02/25 12:27:11;;;;;;;;;;;;;;;;;;5047082;28;20016;-65
2024/02/25 12:29:39;;;;;;;;;;;;;;;;;;5052921;28;20007;-65
2024/02/25 12:32:05;;;;;;;;;;;;;;;;;;5050752;28;19925;-65
2024/02/25 12:34:31;;;;;;;;;;;;;;;;;;5050869;28;19931;-65
2024/02/25 12:36:57;;;;;;;;;;;;;;;;;;5042761;28;20329;-65
2024/02/25 12:39:23;;;;;;;;;;;;;;;;;;5046755;28;19920;-65
2024/02/25 12:41:49;;;;;;;;;;;;;;;;;;5051267;28;19921;-63
2024/02/25 12:44:15;;;;;;;;;;;;;;;;;;5052545;28;19983;-64
2024/02/25 12:46:41;;;;;;;;;;;;;;;;;;5052607;28;20331;-64
2024/02/25 12:49:07;;;;;;;;;;;;;;;;;;5054534;28;19991;-64
2024/02/25 12:51:33;;;;;;;;;;;;;;;;;;5052886;28;19968;-64
2024/02/25 12:53:59;;;;;;;;;;;;;;;;;;5042385;28;20023;-64
2024/02/25 12:56:25;;;;;;;;;;;;;;;;;;5034297;28;19983;-64
2024/02/25 12:58:51;;;;;;;;;;;;;;;;;;5034400;28;19947;-64
2024/02/25 13:01:17;;;;;;;;;;;;;;;;;;5034532;28;19928;-65
2024/02/25 13:03:43;;;;;;;;;;;;;;;;;;5034303;28;19925;-65
2024/02/25 13:06:09;;;;;;;;;;;;;;;;;;5034630;28;19951;-65
2024/02/25 13:08:35;;;;;;;;;;;;;;;;;;5040570;28;19925;-65
2024/02/25 13:11:01;;;;;;;;;;;;;;;;;;5042079;28;19936;-65
2024/02/25 13:13:28;;;;;;;;;;;;;;;;;;5052944;28;20336;-65
2024/02/25 13:15:54;;;;;;;;;;;;;;;;;;5043324;28;20378;-65
2024/02/25 13:18:20;;;;;;;;;;;;;;;;;;5043209;28;19932;-65
2024/02/25 13:20:46;;;;;;;;;;;;;;;;;;5049020;28;20389;-65
2024/02/25 13:23:12;;;;;;;;;;;;;;;;;;5046820;28;19921;-65
2024/02/25 13:25:38;;;;;;;;;;;;;;;;;;5040125;28;19988;-65
2024/02/25 13:28:05;;;;;;;;;;;;;;;;;;5053690;28;19928;-65
2024/02/25 13:30:32;;;;;;;;;;;;;;;;;;5046711;28;19955;-65
2024/02/25 13:32:58;;;;;;;;;;;;;;;;;;5052029;28;20007;-65
2024/02/25 13:35:24;;;;;;;;;;;;;;;;;;5053998;28;20507;-65
2024/02/25 13:37:49;;;;;;;;;;;;;;;;;;5053463;28;19924;-65
2024/02/25 13:40:15;;;;;;;;;;;;;;;;;;5053774;28;19927;-65
2024/02/25 13:42:41;;;;;;;;;;;;;;;;;;5044543;28;19979;-65
2024/02/25 13:45:09;;;;;;;;;;;;;;;;;;5033703;28;19921;-64
2024/02/25 13:47:35;;;;;;;;;;;;;;;;;;5052877;28;19920;-66
2024/02/25 13:50:00;;;;;;;;;;;;;;;;;;5051765;28;19921;-64
2024/02/25 13:52:26;;;;;;;;;;;;;;;;;;5053257;28;19929;-64
2024/02/25 13:54:52;;;;;;;;;;;;;;;;;;5048734;28;20406;-65
2024/02/25 13:57:18;;;;;;;;;;;;;;;;;;5053527;28;19928;-65
2024/02/25 13:59:44;;;;;;;;;;;;;;;;;;5039935;28;19928;-65
2024/02/25 14:02:11;;;;;;;;;;;;;;;;;;5047460;28;19925;-65
2024/02/25 14:04:37;;;;;;;;;;;;;;;;;;5052954;28;19921;-66
2024/02/25 14:07:03;;;;;;;;;;;;;;;;;;5051585;28;19931;-66
2024/02/25 14:09:29;;;;;;;;;;;;;;;;;;5051247;28;19925;-65
2024/02/25 14:11:55;;;;;;;;;;;;;;;;;;5036906;28;19921;-65
2024/02/25 14:14:21;;;;;;;;;;;;;;;;;;5030877;28;20357;-65
2024/02/25 14:16:47;;;;;;;;;;;;;;;;;;5051840;28;20015;-65
2024/02/25 14:19:13;;;;;;;;;;;;;;;;;;5049976;28;19920;-66
2024/02/25 14:21:39;;;;;;;;;;;;;;;;;;5052212;28;19943;-66
2024/02/25 14:24:05;;;;;;;;;;;;;;;;;;5051053;28;20354;-65
2024/02/25 14:26:32;;;;;;;;;;;;;;;;;;5051786;28;19929;-65
2024/02/25 14:28:58;;;;;;;;;;;;;;;;;;5052291;28;20366;-65
2024/02/25 14:31:23;;;;;;;;;;;;;;;;;;5052693;28;19928;-65
2024/02/25 14:33:49;;;;;;;;;;;;;;;;;;5052387;28;20573;-65
2024/02/25 14:36:15;;;;;;;;;;;;;;;;;;5052368;28;20406;-65
2024/02/25 14:38:42;;;;;;;;;;;;;;;;;;5052128;28;19920;-65
2024/02/25 14:41:08;;;;;;;;;;;;;;;;;;5050982;28;19995;-65
2024/02/25 14:43:34;;;;;;;;;;;;;;;;;;5052060;28;20344;-65
2024/02/25 14:46:00;;;;;;;;;;;;;;;;;;5052106;28;20366;-65
2024/02/25 14:48:26;;;;;;;;;;;;;;;;;;5052130;28;19927;-65
2024/02/25 14:50:52;;;;;;;;;;;;;;;;;;5044603;28;19932;-65
2024/02/25 14:53:18;;;;;;;;;;;;;;;;;;5048119;28;20363;-65
2024/02/25 14:55:44;;;;;;;;;;;;;;;;;;5088413;22;20356;-62
2024/02/25 14:58:10;;;;;;;;;;;;;;;;;;5050570;28;20031;-62
2024/02/25 15:00:35;;;;;;;;;;;;;;;;;;5050641;28;19925;-62
2024/02/25 15:03:04;;;;;;;;;;;;;;;;;;5048352;28;19921;-62
2024/02/25 15:05:30;;;;;;;;;;;;;;;;;;5051898;28;19928;-62
2024/02/25 15:07:56;;;;;;;;;;;;;;;;;;5052217;28;20016;-62
2024/02/25 15:10:22;;;;;;;;;;;;;;;;;;5052058;28;20497;-62
2024/02/25 15:12:48;;;;;;;;;;;;;;;;;;5051888;28;19935;-63
2024/02/25 15:15:14;;;;;;;;;;;;;;;;;;5039260;28;20294;-63
2024/02/25 15:17:40;;;;;;;;;;;;;;;;;;5048319;28;20023;-63
2024/02/25 15:20:07;;;;;;;;;;;;;;;;;;5032501;28;19928;-63
2024/02/25 15:22:33;;;;;;;;;;;;;;;;;;5044099;28;19925;-63
2024/02/25 15:24:58;;;;;;;;;;;;;;;;;;5031636;28;20409;-63
2024/02/25 15:27:25;;;;;;;;;;;;;;;;;;5037630;28;19925;-63
2024/02/25 15:29:53;;;;;;;;;;;;;;;;;;5054294;28;19974;-63
2024/02/25 15:32:19;;;;;;;;;;;;;;;;;;5037262;28;20550;-63
2024/02/25 15:34:45;;;;;;;;;;;;;;;;;;5034985;28;20028;-63
2024/02/25 15:37:13;;;;;;;;;;;;;;;;;;5050260;28;20020;-63
2024/02/25 15:39:40;;;;;;;;;;;;;;;;;;5051591;28;19939;-63
2024/02/25 15:42:06;;;;;;;;;;;;;;;;;;5051714;28;19921;-63
2024/02/25 15:44:32;;;;;;;;;;;;;;;;;;5052261;28;20381;-63
2024/02/25 15:46:58;;;;;;;;;;;;;;;;;;5034310;28;19925;-63
2024/02/25 15:49:24;;;;;;;;;;;;;;;;;;5036801;28;19931;-64
2024/02/25 15:51:50;;;;;;;;;;;;;;;;;;5047800;28;19921;-63
2024/02/25 15:54:18;;;;;;;;;;;;;;;;;;5044969;28;19979;-63
2024/02/25 15:56:44;;;;;;;;;;;;;;;;;;5043217;28;19964;-64
2024/02/25 15:59:10;;;;;;;;;;;;;;;;;;5045819;28;19967;-62
2024/02/25 16:01:37;;;;;;;;;;;;;;;;;;5049247;28;20455;-62
2024/02/25 16:04:04;;;;;;;;;;;;;;;;;;5049167;28;19932;-62
2024/02/25 16:06:30;;;;;;;;;;;;;;;;;;5048889;28;19921;-62
2024/02/25 16:08:56;;;;;;;;;;;;;;;;;;5048417;28;19994;-62
2024/02/25 16:11:24;;;;;;;;;;;;;;;;;;5049491;28;19924;-62
2024/02/25 16:13:50;;;;;;;;;;;;;;;;;;5046309;28;19933;-62
2024/02/25 16:16:16;;;;;;;;;;;;;;;;;;5047559;28;19920;-62
2024/02/25 16:18:42;;;;;;;;;;;;;;;;;;5050195;28;19925;-62
2024/02/25 16:21:08;;;;;;;;;;;;;;;;;;5041211;28;19975;-63
2024/02/25 16:23:38;;;;;;;;;;;;;;;;;;5030228;28;19929;-62
2024/02/25 16:26:04;;;;;;;;;;;;;;;;;;5044995;28;19925;-62
2024/02/25 16:28:30;;;;;;;;;;;;;;;;;;5029313;28;19921;-62
2024/02/25 16:30:56;;;;;;;;;;;;;;;;;;5029261;28;20450;-62
2024/02/25 16:33:22;;;;;;;;;;;;;;;;;;5058565;28;19991;-62
2024/02/25 16:35:48;;;;;;;;;;;;;;;;;;5049371;28;19929;-62
2024/02/25 16:38:15;;;;;;;;;;;;;;;;;;5048575;28;19932;-63